Terminal Aerodrome Forecast
Issued by NWS

Current Version | Previous Version | Text Only | Print | Product List | Glossary Off
Versions: 1 2 3 4 5 6 7 8 9 10 11 12 13 14 15 16 17 18 19 20 21 22

000
FTUS41 KPBZ 211100
TAFHLG
TAF
KHLG 211136Z 2112/2212 23005KT P6SM SCT008 OVC015
      TEMPO 2112/2113 BKN006
     FM211500 26008KT P6SM -SHRA OVC015
     FM212100 29008KT P6SM VCSH BKN020=

USA.gov is the U.S. government's official web portal to all federal, state and local government web resources and services.